Terminal Aerodrome Forecast
Issued by NWS

Home | Current Version | Previous Version | Text Only | Print | Product List | Glossary On
Versions: 1 2 3 4 5 6 7 8 9 10 11 12 13 14 15 16 17 18 19 20 21 22 23 24 25 26 27 28 29 30 31 32 33 34 35 36 37 38 39 40 41 42 43 44 45 46 47 48 49 50
000
FTUS46 KEKA 210708 AAB
TAFACV
TAF AMD
KACV 210708Z 2107/2206 16012KT P6SM -SHRA BKN030 BKN040 OVC050
     FM210900 18020G40KT 4SM -RA BR OVC025
      TEMPO 2109/2113 20025G40KT 4SM -TSRA BKN025CB
     FM211500 20010G18KT 6SM -SHRA BR BKN025
     FM211800 20012KT P6SM -SHRA VCTS BKN030CB
     FM212100 22010KT P6SM -SHRA VCTS BKN040CB=

USA.gov is the U.S. government's official web portal to all federal, state and local government web resources and services.